sensor_id;sensor_type;location;lat;lon;timestamp;temperature;humidity
58638;DHT22;54976;51.510;7.522;2023-05-07T00:01:45;14.00;99.90
58638;DHT22;54976;51.510;7.522;2023-05-07T00:04:46;14.10;99.90
58638;DHT22;54976;51.510;7.522;2023-05-07T00:07:47;14.10;99.90
58638;DHT22;54976;51.510;7.522;2023-05-07T00:10:47;14.10;99.90
58638;DHT22;54976;51.510;7.522;2023-05-07T00:13:48;14.20;99.90
58638;DHT22;54976;51.510;7.522;2023-05-07T00:16:49;14.20;99.90
58638;DHT22;54976;51.510;7.522;2023-05-07T00:19:49;14.20;99.90
58638;DHT22;54976;51.510;7.522;2023-05-07T00:22:50;14.20;99.90
58638;DHT22;54976;51.510;7.522;2023-05-07T00:25:50;14.20;99.90
58638;DHT22;54976;51.510;7.522;2023-05-07T00:28:51;14.20;99.90
58638;DHT22;54976;51.510;7.522;2023-05-07T00:31:51;14.20;99.90
58638;DHT22;54976;51.510;7.522;2023-05-07T00:34:54;14.20;99.90
58638;DHT22;54976;51.510;7.522;2023-05-07T00:37:55;14.20;99.90
58638;DHT22;54976;51.510;7.522;2023-05-07T00:40:56;14.20;99.90
58638;DHT22;54976;51.510;7.522;2023-05-07T00:43:57;14.20;99.90
58638;DHT22;54976;51.510;7.522;2023-05-07T00:46:58;14.20;99.90
58638;DHT22;54976;51.510;7.522;2023-05-07T00:49:58;14.20;99.90
58638;DHT22;54976;51.510;7.522;2023-05-07T00:52:59;14.30;99.90
58638;DHT22;54976;51.510;7.522;2023-05-07T00:56:00;14.30;99.90
58638;DHT22;54976;51.510;7.522;2023-05-07T00:59:02;14.40;99.90
58638;DHT22;54976;51.510;7.522;2023-05-07T01:02:03;14.30;99.90
58638;DHT22;54976;51.510;7.522;2023-05-07T01:05:05;14.30;99.90
58638;DHT22;54976;51.510;7.522;2023-05-07T01:08:08;14.20;99.90
58638;DHT22;54976;51.510;7.522;2023-05-07T01:11:10;14.30;99.90
58638;DHT22;54976;51.510;7.522;2023-05-07T01:14:11;14.20;99.90
58638;DHT22;54976;51.510;7.522;2023-05-07T01:17:12;14.20;99.90
58638;DHT22;54976;51.510;7.522;2023-05-07T01:20:13;14.20;99.90
58638;DHT22;54976;51.510;7.522;2023-05-07T01:23:15;14.10;99.90
58638;DHT22;54976;51.510;7.522;2023-05-07T01:26:15;14.10;99.90
58638;DHT22;54976;51.510;7.522;2023-05-07T01:29:16;14.00;99.90
58638;DHT22;54976;51.510;7.522;2023-05-07T01:32:19;14.10;99.90
58638;DHT22;54976;51.510;7.522;2023-05-07T01:35:26;14.10;99.90
58638;DHT22;54976;51.510;7.522;2023-05-07T01:38:27;14.10;99.90
58638;DHT22;54976;51.510;7.522;2023-05-07T01:41:28;14.10;99.90
58638;DHT22;54976;51.510;7.522;2023-05-07T01:44:28;14.10;99.90
58638;DHT22;54976;51.510;7.522;2023-05-07T01:47:30;14.10;99.90
58638;DHT22;54976;51.510;7.522;2023-05-07T01:50:31;14.20;99.90
58638;DHT22;54976;51.510;7.522;2023-05-07T01:53:36;14.10;99.90
58638;DHT22;54976;51.510;7.522;2023-05-07T01:56:37;14.10;99.90
58638;DHT22;54976;51.510;7.522;2023-05-07T01:59:37;14.10;99.90
58638;DHT22;54976;51.510;7.522;2023-05-07T02:02:38;14.00;99.90
58638;DHT22;54976;51.510;7.522;2023-05-07T02:05:38;14.00;99.90
58638;DHT22;54976;51.510;7.522;2023-05-07T02:08:39;14.20;99.90
58638;DHT22;54976;51.510;7.522;2023-05-07T02:11:40;14.10;99.90
58638;DHT22;54976;51.510;7.522;2023-05-07T02:14:40;14.10;99.90
58638;DHT22;54976;51.510;7.522;2023-05-07T02:21:00;14.20;99.90
58638;DHT22;54976;51.510;7.522;2023-05-07T02:24:00;14.00;99.90
58638;DHT22;54976;51.510;7.522;2023-05-07T02:27:01;14.00;99.90
58638;DHT22;54976;51.510;7.522;2023-05-07T02:30:03;14.00;99.90
58638;DHT22;54976;51.510;7.522;2023-05-07T02:33:04;14.00;99.90
58638;DHT22;54976;51.510;7.522;2023-05-07T02:36:09;13.90;99.90
58638;DHT22;54976;51.510;7.522;2023-05-07T02:39:10;13.80;99.90
58638;DHT22;54976;51.510;7.522;2023-05-07T02:42:11;13.80;99.90
58638;DHT22;54976;51.510;7.522;2023-05-07T02:45:12;13.80;99.90
58638;DHT22;54976;51.510;7.522;2023-05-07T02:48:12;13.80;99.90
58638;DHT22;54976;51.510;7.522;2023-05-07T02:51:14;13.80;99.90
58638;DHT22;54976;51.510;7.522;2023-05-07T02:54:15;13.80;99.90
58638;DHT22;54976;51.510;7.522;2023-05-07T02:57:15;13.80;99.90
58638;DHT22;54976;51.510;7.522;2023-05-07T03:00:19;13.80;99.90
58638;DHT22;54976;51.510;7.522;2023-05-07T03:03:20;13.80;99.90
58638;DHT22;54976;51.510;7.522;2023-05-07T03:06:21;13.70;99.90
58638;DHT22;54976;51.510;7.522;2023-05-07T03:09:21;13.70;99.90
58638;DHT22;54976;51.510;7.522;2023-05-07T03:12:22;13.70;99.90
58638;DHT22;54976;51.510;7.522;2023-05-07T03:15:23;13.70;99.90
58638;DHT22;54976;51.510;7.522;2023-05-07T03:18:23;13.70;99.90
58638;DHT22;54976;51.510;7.522;2023-05-07T03:21:24;13.80;99.90
58638;DHT22;54976;51.510;7.522;2023-05-07T03:24:26;13.80;99.90
58638;DHT22;54976;51.510;7.522;2023-05-07T03:27:27;13.80;99.90
58638;DHT22;54976;51.510;7.522;2023-05-07T03:30:27;13.80;99.90
58638;DHT22;54976;51.510;7.522;2023-05-07T03:33:28;13.80;99.90
58638;DHT22;54976;51.510;7.522;2023-05-07T03:36:29;13.80;99.90
58638;DHT22;54976;51.510;7.522;2023-05-07T03:39:29;13.80;99.90
58638;DHT22;54976;51.510;7.522;2023-05-07T03:42:30;13.80;99.90
58638;DHT22;54976;51.510;7.522;2023-05-07T03:45:31;13.80;99.90
58638;DHT22;54976;51.510;7.522;2023-05-07T03:48:32;13.80;99.90
58638;DHT22;54976;51.510;7.522;2023-05-07T03:51:32;13.90;99.90
58638;DHT22;54976;51.510;7.522;2023-05-07T03:54:33;13.80;99.90
58638;DHT22;54976;51.510;7.522;2023-05-07T03:57:33;13.90;99.90
58638;DHT22;54976;51.510;7.522;2023-05-07T04:00:34;13.90;99.90
58638;DHT22;54976;51.510;7.522;2023-05-07T04:03:38;13.90;99.90
58638;DHT22;54976;51.510;7.522;2023-05-07T04:06:39;13.80;99.90
58638;DHT22;54976;51.510;7.522;2023-05-07T04:09:39;13.80;99.90
58638;DHT22;54976;51.510;7.522;2023-05-07T04:12:40;13.80;99.90
58638;DHT22;54976;51.510;7.522;2023-05-07T04:15:40;13.80;99.90
58638;DHT22;54976;51.510;7.522;2023-05-07T04:18:41;13.80;99.90
58638;DHT22;54976;51.510;7.522;2023-05-07T04:21:41;13.80;99.90
58638;DHT22;54976;51.510;7.522;2023-05-07T04:24:43;13.90;99.90
58638;DHT22;54976;51.510;7.522;2023-05-07T04:27:43;13.90;99.90
58638;DHT22;54976;51.510;7.522;2023-05-07T04:30:44;13.90;99.90
58638;DHT22;54976;51.510;7.522;2023-05-07T04:33:45;14.00;99.90
58638;DHT22;54976;51.510;7.522;2023-05-07T04:36:45;14.00;99.90
58638;DHT22;54976;51.510;7.522;2023-05-07T04:39:46;14.10;99.90
58638;DHT22;54976;51.510;7.522;2023-05-07T04:42:47;14.10;99.90
58638;DHT22;54976;51.510;7.522;2023-05-07T04:45:47;14.10;99.90
58638;DHT22;54976;51.510;7.522;2023-05-07T04:48:49;14.20;99.90
58638;DHT22;54976;51.510;7.522;2023-05-07T04:51:50;14.20;99.90
58638;DHT22;54976;51.510;7.522;2023-05-07T04:54:50;14.50;99.90
58638;DHT22;54976;51.510;7.522;2023-05-07T04:57:52;14.40;99.90
58638;DHT22;54976;51.510;7.522;2023-05-07T05:00:53;14.40;99.90
58638;DHT22;54976;51.510;7.522;2023-05-07T05:03:53;14.50;99.90
58638;DHT22;54976;51.510;7.522;2023-05-07T05:06:54;14.60;99.90
58638;DHT22;54976;51.510;7.522;2023-05-07T05:09:55;14.80;99.90
58638;DHT22;54976;51.510;7.522;2023-05-07T05:12:55;14.90;99.90
58638;DHT22;54976;51.510;7.522;2023-05-07T05:15:56;15.00;99.90
58638;DHT22;54976;51.510;7.522;2023-05-07T05:18:56;15.10;99.90
58638;DHT22;54976;51.510;7.522;2023-05-07T05:21:57;15.20;99.90
58638;DHT22;54976;51.510;7.522;2023-05-07T05:24:58;15.40;99.90
58638;DHT22;54976;51.510;7.522;2023-05-07T05:27:58;15.20;99.90
58638;DHT22;54976;51.510;7.522;2023-05-07T05:30:59;15.10;99.90
58638;DHT22;54976;51.510;7.522;2023-05-07T05:33:59;15.00;99.90
58638;DHT22;54976;51.510;7.522;2023-05-07T05:37:00;15.10;99.90
58638;DHT22;54976;51.510;7.522;2023-05-07T05:40:02;15.10;99.90
58638;DHT22;54976;51.510;7.522;2023-05-07T05:43:02;15.10;99.90
58638;DHT22;54976;51.510;7.522;2023-05-07T05:46:03;15.20;99.90
58638;DHT22;54976;51.510;7.522;2023-05-07T05:49:04;15.30;99.90
58638;DHT22;54976;51.510;7.522;2023-05-07T05:52:05;15.30;99.90
58638;DHT22;54976;51.510;7.522;2023-05-07T05:55:06;15.40;99.90
58638;DHT22;54976;51.510;7.522;2023-05-07T05:58:07;15.60;99.90
58638;DHT22;54976;51.510;7.522;2023-05-07T06:01:08;15.80;99.90
58638;DHT22;54976;51.510;7.522;2023-05-07T06:04:08;16.10;99.90
58638;DHT22;54976;51.510;7.522;2023-05-07T06:07:09;16.40;99.90
58638;DHT22;54976;51.510;7.522;2023-05-07T06:10:09;16.60;99.90
58638;DHT22;54976;51.510;7.522;2023-05-07T06:13:10;16.70;99.90
58638;DHT22;54976;51.510;7.522;2023-05-07T06:16:11;16.70;99.90
58638;DHT22;54976;51.510;7.522;2023-05-07T06:19:11;16.80;99.90
58638;DHT22;54976;51.510;7.522;2023-05-07T06:22:12;16.90;99.90
58638;DHT22;54976;51.510;7.522;2023-05-07T06:25:12;17.00;99.90
58638;DHT22;54976;51.510;7.522;2023-05-07T06:28:13;17.10;99.90
58638;DHT22;54976;51.510;7.522;2023-05-07T06:31:15;17.20;99.90
58638;DHT22;54976;51.510;7.522;2023-05-07T06:34:16;17.30;99.90
58638;DHT22;54976;51.510;7.522;2023-05-07T06:37:17;17.30;99.90
58638;DHT22;54976;51.510;7.522;2023-05-07T06:40:17;17.60;99.90
58638;DHT22;54976;51.510;7.522;2023-05-07T06:43:18;17.60;99.90
58638;DHT22;54976;51.510;7.522;2023-05-07T06:46:18;17.80;99.90
58638;DHT22;54976;51.510;7.522;2023-05-07T06:49:19;17.90;99.90
58638;DHT22;54976;51.510;7.522;2023-05-07T06:52:20;17.90;99.90
58638;DHT22;54976;51.510;7.522;2023-05-07T06:55:20;17.60;99.90
58638;DHT22;54976;51.510;7.522;2023-05-07T06:58:21;17.70;99.90
58638;DHT22;54976;51.510;7.522;2023-05-07T07:01:21;17.60;99.90
58638;DHT22;54976;51.510;7.522;2023-05-07T07:04:22;17.80;99.90
58638;DHT22;54976;51.510;7.522;2023-05-07T07:07:24;17.50;99.90
58638;DHT22;54976;51.510;7.522;2023-05-07T07:10:24;17.50;99.90
58638;DHT22;54976;51.510;7.522;2023-05-07T07:13:25;17.50;99.90
58638;DHT22;54976;51.510;7.522;2023-05-07T07:16:26;17.60;99.90
58638;DHT22;54976;51.510;7.522;2023-05-07T07:19:26;17.80;99.90
58638;DHT22;54976;51.510;7.522;2023-05-07T07:22:27;17.90;99.90
58638;DHT22;54976;51.510;7.522;2023-05-07T07:25:27;18.00;99.90
58638;DHT22;54976;51.510;7.522;2023-05-07T07:28:28;18.00;99.90
58638;DHT22;54976;51.510;7.522;2023-05-07T07:31:29;17.70;99.90
58638;DHT22;54976;51.510;7.522;2023-05-07T07:34:30;17.80;99.90
58638;DHT22;54976;51.510;7.522;2023-05-07T07:37:31;17.90;99.90
58638;DHT22;54976;51.510;7.522;2023-05-07T07:40:34;18.10;99.90
58638;DHT22;54976;51.510;7.522;2023-05-07T07:43:34;18.30;99.90
58638;DHT22;54976;51.510;7.522;2023-05-07T07:46:35;18.10;99.90
58638;DHT22;54976;51.510;7.522;2023-05-07T07:49:36;17.80;99.90
58638;DHT22;54976;51.510;7.522;2023-05-07T07:52:37;17.90;99.90
58638;DHT22;54976;51.510;7.522;2023-05-07T07:55:38;18.30;99.90
58638;DHT22;54976;51.510;7.522;2023-05-07T07:58:40;18.60;99.90
58638;DHT22;54976;51.510;7.522;2023-05-07T08:01:40;18.90;99.90
58638;DHT22;54976;51.510;7.522;2023-05-07T08:04:41;19.10;99.90
58638;DHT22;54976;51.510;7.522;2023-05-07T08:07:43;19.50;99.20
58638;DHT22;54976;51.510;7.522;2023-05-07T08:10:44;19.70;99.70
58638;DHT22;54976;51.510;7.522;2023-05-07T08:13:45;19.80;98.60
58638;DHT22;54976;51.510;7.522;2023-05-07T08:16:46;19.70;98.30
58638;DHT22;54976;51.510;7.522;2023-05-07T08:19:46;19.80;99.20
58638;DHT22;54976;51.510;7.522;2023-05-07T08:22:47;19.70;97.90
58638;DHT22;54976;51.510;7.522;2023-05-07T08:25:49;19.60;97.80
58638;DHT22;54976;51.510;7.522;2023-05-07T08:28:49;19.60;98.60
58638;DHT22;54976;51.510;7.522;2023-05-07T08:31:50;19.50;97.70
58638;DHT22;54976;51.510;7.522;2023-05-07T08:34:50;19.30;99.00
58638;DHT22;54976;51.510;7.522;2023-05-07T08:37:51;19.20;98.80
58638;DHT22;54976;51.510;7.522;2023-05-07T08:40:52;19.40;99.90
58638;DHT22;54976;51.510;7.522;2023-05-07T08:43:54;19.50;99.70
58638;DHT22;54976;51.510;7.522;2023-05-07T08:46:56;19.70;98.30
58638;DHT22;54976;51.510;7.522;2023-05-07T08:49:58;19.60;98.20
58638;DHT22;54976;51.510;7.522;2023-05-07T08:52:59;19.60;98.30
58638;DHT22;54976;51.510;7.522;2023-05-07T08:56:00;19.80;97.70
58638;DHT22;54976;51.510;7.522;2023-05-07T08:59:01;19.90;97.50
58638;DHT22;54976;51.510;7.522;2023-05-07T09:02:02;20.00;99.00
58638;DHT22;54976;51.510;7.522;2023-05-07T09:05:03;20.30;97.60
58638;DHT22;54976;51.510;7.522;2023-05-07T09:08:06;20.20;96.10
58638;DHT22;54976;51.510;7.522;2023-05-07T09:11:06;20.00;96.20
58638;DHT22;54976;51.510;7.522;2023-05-07T09:14:07;20.00;97.30
58638;DHT22;54976;51.510;7.522;2023-05-07T09:17:08;20.30;97.40
58638;DHT22;54976;51.510;7.522;2023-05-07T09:20:08;20.50;96.40
58638;DHT22;54976;51.510;7.522;2023-05-07T09:23:09;20.50;95.50
58638;DHT22;54976;51.510;7.522;2023-05-07T09:26:10;20.60;96.00
58638;DHT22;54976;51.510;7.522;2023-05-07T09:29:15;20.70;96.10
58638;DHT22;54976;51.510;7.522;2023-05-07T09:32:17;20.80;95.00
58638;DHT22;54976;51.510;7.522;2023-05-07T09:35:18;20.90;95.00
58638;DHT22;54976;51.510;7.522;2023-05-07T09:38:20;20.70;95.10
58638;DHT22;54976;51.510;7.522;2023-05-07T09:41:21;20.80;95.90
58638;DHT22;54976;51.510;7.522;2023-05-07T09:44:22;20.60;93.70
58638;DHT22;54976;51.510;7.522;2023-05-07T09:47:24;20.40;94.80
58638;DHT22;54976;51.510;7.522;2023-05-07T09:50:35;21.20;95.90
58638;DHT22;54976;51.510;7.522;2023-05-07T09:53:36;21.60;92.40
58638;DHT22;54976;51.510;7.522;2023-05-07T09:56:38;21.60;90.50
58638;DHT22;54976;51.510;7.522;2023-05-07T09:59:43;21.10;91.50
58638;DHT22;54976;51.510;7.522;2023-05-07T10:02:46;21.00;91.20
58638;DHT22;54976;51.510;7.522;2023-05-07T10:05:50;21.00;91.70
58638;DHT22;54976;51.510;7.522;2023-05-07T10:08:52;21.00;91.10
58638;DHT22;54976;51.510;7.522;2023-05-07T10:11:53;21.30;90.50
58638;DHT22;54976;51.510;7.522;2023-05-07T10:14:56;21.60;92.20
58638;DHT22;54976;51.510;7.522;2023-05-07T10:17:57;22.00;91.00
58638;DHT22;54976;51.510;7.522;2023-05-07T10:21:12;22.40;89.80
58638;DHT22;54976;51.510;7.522;2023-05-07T10:24:22;22.60;87.20
58638;DHT22;54976;51.510;7.522;2023-05-07T10:27:25;22.60;81.60
58638;DHT22;54976;51.510;7.522;2023-05-07T10:34:06;22.50;78.60
58638;DHT22;54976;51.510;7.522;2023-05-07T10:37:09;22.30;83.20
58638;DHT22;54976;51.510;7.522;2023-05-07T10:40:12;22.30;80.70
58638;DHT22;54976;51.510;7.522;2023-05-07T10:43:13;22.40;83.00
58638;DHT22;54976;51.510;7.522;2023-05-07T10:46:16;22.40;82.80
58638;DHT22;54976;51.510;7.522;2023-05-07T10:49:17;22.80;82.90
58638;DHT22;54976;51.510;7.522;2023-05-07T10:52:20;22.90;72.20
58638;DHT22;54976;51.510;7.522;2023-05-07T10:55:21;22.30;73.00
58638;DHT22;54976;51.510;7.522;2023-05-07T10:58:26;22.20;76.70
58638;DHT22;54976;51.510;7.522;2023-05-07T11:05:22;22.70;78.20
58638;DHT22;54976;51.510;7.522;2023-05-07T11:08:23;22.80;76.30
58638;DHT22;54976;51.510;7.522;2023-05-07T11:14:53;22.70;77.00
58638;DHT22;54976;51.510;7.522;2023-05-07T11:17:55;22.70;73.20
58638;DHT22;54976;51.510;7.522;2023-05-07T11:20:57;22.70;76.00
58638;DHT22;54976;51.510;7.522;2023-05-07T11:23:59;22.70;79.40
58638;DHT22;54976;51.510;7.522;2023-05-07T11:27:00;22.90;74.30
58638;DHT22;54976;51.510;7.522;2023-05-07T11:30:01;22.40;74.20
58638;DHT22;54976;51.510;7.522;2023-05-07T11:33:02;22.10;76.00
58638;DHT22;54976;51.510;7.522;2023-05-07T11:36:04;22.20;77.00
58638;DHT22;54976;51.510;7.522;2023-05-07T11:39:05;22.50;74.90
58638;DHT22;54976;51.510;7.522;2023-05-07T11:42:05;22.70;78.10
58638;DHT22;54976;51.510;7.522;2023-05-07T11:45:07;22.90;72.50
58638;DHT22;54976;51.510;7.522;2023-05-07T11:48:08;23.00;71.30
58638;DHT22;54976;51.510;7.522;2023-05-07T11:51:08;22.60;70.60
58638;DHT22;54976;51.510;7.522;2023-05-07T11:54:11;22.50;72.00
58638;DHT22;54976;51.510;7.522;2023-05-07T11:57:15;22.60;74.00
58638;DHT22;54976;51.510;7.522;2023-05-07T12:00:16;22.80;72.30
58638;DHT22;54976;51.510;7.522;2023-05-07T12:03:17;23.00;69.20
58638;DHT22;54976;51.510;7.522;2023-05-07T12:06:18;23.20;69.40
58638;DHT22;54976;51.510;7.522;2023-05-07T12:09:19;23.20;70.20
58638;DHT22;54976;51.510;7.522;2023-05-07T12:12:19;23.00;69.10
58638;DHT22;54976;51.510;7.522;2023-05-07T12:15:22;23.10;72.00
58638;DHT22;54976;51.510;7.522;2023-05-07T12:18:23;23.50;71.60
58638;DHT22;54976;51.510;7.522;2023-05-07T12:21:25;23.50;67.90
58638;DHT22;54976;51.510;7.522;2023-05-07T12:24:26;23.60;66.90
58638;DHT22;54976;51.510;7.522;2023-05-07T12:27:26;23.10;66.20
58638;DHT22;54976;51.510;7.522;2023-05-07T12:30:27;22.90;70.90
58638;DHT22;54976;51.510;7.522;2023-05-07T12:33:28;22.80;67.70
58638;DHT22;54976;51.510;7.522;2023-05-07T12:36:39;22.80;67.60
58638;DHT22;54976;51.510;7.522;2023-05-07T12:40:02;22.80;68.30
58638;DHT22;54976;51.510;7.522;2023-05-07T12:43:03;22.50;66.60
58638;DHT22;54976;51.510;7.522;2023-05-07T12:46:06;22.30;69.40
58638;DHT22;54976;51.510;7.522;2023-05-07T12:49:07;22.20;67.60
58638;DHT22;54976;51.510;7.522;2023-05-07T12:52:07;22.10;71.60
58638;DHT22;54976;51.510;7.522;2023-05-07T12:55:09;22.10;71.80
58638;DHT22;54976;51.510;7.522;2023-05-07T12:58:17;22.10;73.10
58638;DHT22;54976;51.510;7.522;2023-05-07T13:01:18;22.00;71.60
58638;DHT22;54976;51.510;7.522;2023-05-07T13:04:19;22.00;72.50
58638;DHT22;54976;51.510;7.522;2023-05-07T13:07:25;21.80;72.90
58638;DHT22;54976;51.510;7.522;2023-05-07T13:10:26;21.60;74.30
58638;DHT22;54976;51.510;7.522;2023-05-07T13:13:27;21.50;72.10
58638;DHT22;54976;51.510;7.522;2023-05-07T13:16:28;21.40;72.60
58638;DHT22;54976;51.510;7.522;2023-05-07T13:19:28;21.20;72.30
58638;DHT22;54976;51.510;7.522;2023-05-07T13:22:29;21.00;73.20
58638;DHT22;54976;51.510;7.522;2023-05-07T13:25:30;20.90;73.20
58638;DHT22;54976;51.510;7.522;2023-05-07T13:28:31;20.90;73.40
58638;DHT22;54976;51.510;7.522;2023-05-07T13:31:31;20.80;73.30
58638;DHT22;54976;51.510;7.522;2023-05-07T13:34:32;20.80;76.60
58638;DHT22;54976;51.510;7.522;2023-05-07T13:37:33;20.70;76.50
58638;DHT22;54976;51.510;7.522;2023-05-07T13:40:33;20.70;78.80
58638;DHT22;54976;51.510;7.522;2023-05-07T13:43:34;20.60;78.70
58638;DHT22;54976;51.510;7.522;2023-05-07T13:46:35;20.50;77.00
58638;DHT22;54976;51.510;7.522;2023-05-07T13:49:36;20.40;79.00
58638;DHT22;54976;51.510;7.522;2023-05-07T13:52:37;20.40;79.30
58638;DHT22;54976;51.510;7.522;2023-05-07T13:55:38;20.50;78.80
58638;DHT22;54976;51.510;7.522;2023-05-07T13:58:38;20.40;81.50
58638;DHT22;54976;51.510;7.522;2023-05-07T14:01:39;20.40;84.10
58638;DHT22;54976;51.510;7.522;2023-05-07T14:04:40;20.40;83.90
58638;DHT22;54976;51.510;7.522;2023-05-07T14:07:40;20.40;83.00
58638;DHT22;54976;51.510;7.522;2023-05-07T14:10:41;20.40;86.40
58638;DHT22;54976;51.510;7.522;2023-05-07T14:13:41;20.50;83.50
58638;DHT22;54976;51.510;7.522;2023-05-07T14:16:42;20.50;85.20
58638;DHT22;54976;51.510;7.522;2023-05-07T14:19:43;20.50;83.50
58638;DHT22;54976;51.510;7.522;2023-05-07T14:22:44;20.50;82.60
58638;DHT22;54976;51.510;7.522;2023-05-07T14:25:46;20.60;84.60
58638;DHT22;54976;51.510;7.522;2023-05-07T14:28:48;20.70;84.80
58638;DHT22;54976;51.510;7.522;2023-05-07T14:31:48;20.70;84.60
58638;DHT22;54976;51.510;7.522;2023-05-07T14:34:49;20.70;86.20
58638;DHT22;54976;51.510;7.522;2023-05-07T14:37:50;20.60;84.60
58638;DHT22;54976;51.510;7.522;2023-05-07T14:40:51;20.50;84.70
58638;DHT22;54976;51.510;7.522;2023-05-07T14:43:52;20.50;84.30
58638;DHT22;54976;51.510;7.522;2023-05-07T14:46:53;20.50;86.00
58638;DHT22;54976;51.510;7.522;2023-05-07T14:49:54;20.50;85.90
58638;DHT22;54976;51.510;7.522;2023-05-07T14:52:54;20.60;87.80
58638;DHT22;54976;51.510;7.522;2023-05-07T14:55:55;20.50;88.10
58638;DHT22;54976;51.510;7.522;2023-05-07T14:58:56;20.40;91.10
58638;DHT22;54976;51.510;7.522;2023-05-07T15:01:57;20.40;91.70
58638;DHT22;54976;51.510;7.522;2023-05-07T15:04:59;20.40;92.00
58638;DHT22;54976;51.510;7.522;2023-05-07T15:08:00;20.20;91.70
58638;DHT22;54976;51.510;7.522;2023-05-07T15:11:00;20.10;92.50
58638;DHT22;54976;51.510;7.522;2023-05-07T15:14:01;19.90;92.50
58638;DHT22;54976;51.510;7.522;2023-05-07T15:17:01;19.70;93.50
58638;DHT22;54976;51.510;7.522;2023-05-07T15:20:02;19.50;93.80
58638;DHT22;54976;51.510;7.522;2023-05-07T15:23:06;19.50;94.80
58638;DHT22;54976;51.510;7.522;2023-05-07T15:26:10;19.40;94.50
58638;DHT22;54976;51.510;7.522;2023-05-07T15:29:10;19.30;94.80
58638;DHT22;54976;51.510;7.522;2023-05-07T15:32:11;19.30;95.40
58638;DHT22;54976;51.510;7.522;2023-05-07T15:35:12;19.30;95.40
58638;DHT22;54976;51.510;7.522;2023-05-07T15:38:12;19.20;95.90
58638;DHT22;54976;51.510;7.522;2023-05-07T15:41:13;19.20;96.20
58638;DHT22;54976;51.510;7.522;2023-05-07T15:44:14;19.20;96.70
58638;DHT22;54976;51.510;7.522;2023-05-07T15:47:15;19.20;96.80
58638;DHT22;54976;51.510;7.522;2023-05-07T15:50:16;19.20;97.00
58638;DHT22;54976;51.510;7.522;2023-05-07T15:53:16;19.20;96.80
58638;DHT22;54976;51.510;7.522;2023-05-07T15:56:17;19.20;97.00
58638;DHT22;54976;51.510;7.522;2023-05-07T15:59:17;19.20;97.00
58638;DHT22;54976;51.510;7.522;2023-05-07T16:02:18;19.20;96.90
58638;DHT22;54976;51.510;7.522;2023-05-07T16:05:19;19.20;96.30
58638;DHT22;54976;51.510;7.522;2023-05-07T16:08:19;19.20;96.30
58638;DHT22;54976;51.510;7.522;2023-05-07T16:11:20;19.10;96.10
58638;DHT22;54976;51.510;7.522;2023-05-07T16:14:21;19.10;96.90
58638;DHT22;54976;51.510;7.522;2023-05-07T16:17:22;19.10;96.80
58638;DHT22;54976;51.510;7.522;2023-05-07T16:20:26;19.20;96.30
58638;DHT22;54976;51.510;7.522;2023-05-07T16:23:29;19.30;96.70
58638;DHT22;54976;51.510;7.522;2023-05-07T16:26:30;19.30;95.90
58638;DHT22;54976;51.510;7.522;2023-05-07T16:29:31;19.30;96.00
58638;DHT22;54976;51.510;7.522;2023-05-07T16:32:31;19.40;95.20
58638;DHT22;54976;51.510;7.522;2023-05-07T16:35:32;19.40;94.30
58638;DHT22;54976;51.510;7.522;2023-05-07T16:38:32;19.40;93.80
58638;DHT22;54976;51.510;7.522;2023-05-07T16:41:33;19.50;94.00
58638;DHT22;54976;51.510;7.522;2023-05-07T16:44:34;19.50;94.10
58638;DHT22;54976;51.510;7.522;2023-05-07T16:47:34;19.60;94.10
58638;DHT22;54976;51.510;7.522;2023-05-07T16:50:35;19.60;93.70
58638;DHT22;54976;51.510;7.522;2023-05-07T16:53:36;19.60;93.20
58638;DHT22;54976;51.510;7.522;2023-05-07T16:56:37;19.50;93.60
58638;DHT22;54976;51.510;7.522;2023-05-07T16:59:38;19.50;93.90
58638;DHT22;54976;51.510;7.522;2023-05-07T17:02:38;19.50;93.50
58638;DHT22;54976;51.510;7.522;2023-05-07T17:05:39;19.50;94.00
58638;DHT22;54976;51.510;7.522;2023-05-07T17:08:40;19.40;93.90
58638;DHT22;54976;51.510;7.522;2023-05-07T17:11:41;19.30;93.90
58638;DHT22;54976;51.510;7.522;2023-05-07T17:14:42;19.20;94.40
58638;DHT22;54976;51.510;7.522;2023-05-07T17:17:43;19.10;94.70
58638;DHT22;54976;51.510;7.522;2023-05-07T17:20:43;19.00;95.20
58638;DHT22;54976;51.510;7.522;2023-05-07T17:23:44;19.00;95.60
58638;DHT22;54976;51.510;7.522;2023-05-07T17:26:46;18.90;95.50
58638;DHT22;54976;51.510;7.522;2023-05-07T17:29:47;18.80;95.80
58638;DHT22;54976;51.510;7.522;2023-05-07T17:32:48;18.80;95.80
58638;DHT22;54976;51.510;7.522;2023-05-07T17:35:48;18.80;95.50
58638;DHT22;54976;51.510;7.522;2023-05-07T17:38:49;18.70;95.30
58638;DHT22;54976;51.510;7.522;2023-05-07T17:41:49;18.70;95.90
58638;DHT22;54976;51.510;7.522;2023-05-07T17:44:50;18.60;96.10
58638;DHT22;54976;51.510;7.522;2023-05-07T17:47:51;18.60;95.90
58638;DHT22;54976;51.510;7.522;2023-05-07T17:50:51;18.50;95.40
58638;DHT22;54976;51.510;7.522;2023-05-07T17:53:52;18.60;95.80
58638;DHT22;54976;51.510;7.522;2023-05-07T17:56:52;18.50;96.10
58638;DHT22;54976;51.510;7.522;2023-05-07T17:59:53;18.40;95.80
58638;DHT22;54976;51.510;7.522;2023-05-07T18:02:54;18.50;96.20
58638;DHT22;54976;51.510;7.522;2023-05-07T18:05:54;18.30;96.50
58638;DHT22;54976;51.510;7.522;2023-05-07T18:08:55;18.30;96.70
58638;DHT22;54976;51.510;7.522;2023-05-07T18:11:56;18.20;96.60
58638;DHT22;54976;51.510;7.522;2023-05-07T18:14:56;18.20;96.90
58638;DHT22;54976;51.510;7.522;2023-05-07T18:17:57;18.10;97.20
58638;DHT22;54976;51.510;7.522;2023-05-07T18:20:58;18.10;97.80
58638;DHT22;54976;51.510;7.522;2023-05-07T18:23:58;18.00;98.10
58638;DHT22;54976;51.510;7.522;2023-05-07T18:26:59;18.00;98.40
58638;DHT22;54976;51.510;7.522;2023-05-07T18:30:00;17.90;98.70
58638;DHT22;54976;51.510;7.522;2023-05-07T18:33:00;17.90;99.30
58638;DHT22;54976;51.510;7.522;2023-05-07T18:36:01;17.90;99.80
58638;DHT22;54976;51.510;7.522;2023-05-07T18:39:02;17.80;99.30
58638;DHT22;54976;51.510;7.522;2023-05-07T18:42:03;17.80;99.60
58638;DHT22;54976;51.510;7.522;2023-05-07T18:45:05;17.80;99.90
58638;DHT22;54976;51.510;7.522;2023-05-07T18:48:06;17.70;99.90
58638;DHT22;54976;51.510;7.522;2023-05-07T18:51:06;17.70;99.90
58638;DHT22;54976;51.510;7.522;2023-05-07T18:54:11;17.70;99.90
58638;DHT22;54976;51.510;7.522;2023-05-07T18:57:12;17.60;99.90
58638;DHT22;54976;51.510;7.522;2023-05-07T19:00:13;17.60;99.90
58638;DHT22;54976;51.510;7.522;2023-05-07T19:03:14;17.50;99.90
58638;DHT22;54976;51.510;7.522;2023-05-07T19:06:15;17.50;99.90
58638;DHT22;54976;51.510;7.522;2023-05-07T19:09:16;17.50;99.90
58638;DHT22;54976;51.510;7.522;2023-05-07T19:12:16;17.30;99.90
58638;DHT22;54976;51.510;7.522;2023-05-07T19:15:17;17.30;99.90
58638;DHT22;54976;51.510;7.522;2023-05-07T19:18:17;17.20;99.90